createdAt,value
2023-04-09T00:00:37.015Z,52.00
2023-04-09T00:03:04.975Z,52.64
2023-04-09T00:05:33.059Z,52.81
2023-04-09T00:08:00.975Z,52.38
2023-04-09T00:10:28.949Z,52.70
2023-04-09T00:12:58.475Z,52.41
2023-04-09T00:15:31.077Z,52.80
2023-04-09T00:17:59.965Z,52.59
2023-04-09T00:20:27.995Z,52.71
2023-04-09T00:22:56.538Z,53.41
2023-04-09T00:25:24.628Z,53.01
2023-04-09T00:27:52.701Z,53.60
2023-04-09T00:30:22.088Z,53.19
2023-04-09T00:32:50.837Z,53.64
2023-04-09T00:35:18.795Z,53.41
2023-04-09T00:37:46.719Z,53.45
2023-04-09T00:40:15.313Z,53.43
2023-04-09T00:42:43.554Z,53.97
2023-04-09T00:45:12.152Z,54.17
2023-04-09T00:47:43.242Z,53.99
2023-04-09T00:50:11.729Z,53.86
2023-04-09T00:52:39.788Z,54.55
2023-04-09T00:55:09.352Z,54.50
2023-04-09T00:57:37.613Z,53.95
2023-04-09T01:00:07.846Z,53.70
2023-04-09T01:02:36.744Z,54.30
2023-04-09T01:05:06.954Z,54.28
2023-04-09T01:07:48.473Z,54.08
2023-04-09T01:10:25.817Z,54.02
2023-04-09T01:13:05.563Z,54.36
2023-04-09T01:15:38.048Z,54.05
2023-04-09T01:18:11.368Z,54.57
2023-04-09T01:20:43.635Z,54.72
2023-04-09T01:23:19.917Z,54.69
2023-04-09T01:26:03.307Z,54.82
2023-04-09T01:28:36.571Z,54.52
2023-04-09T01:31:15.019Z,55.11
2023-04-09T01:33:43.539Z,54.68
2023-04-09T01:36:12.376Z,54.66
2023-04-09T01:38:42.668Z,55.30
2023-04-09T01:41:15.808Z,54.92
2023-04-09T01:43:46.582Z,54.88
2023-04-09T01:46:16.427Z,54.99
2023-04-09T01:48:45.132Z,55.38
2023-04-09T01:51:14.215Z,55.15
2023-04-09T01:53:45.667Z,55.41
2023-04-09T01:56:13.760Z,55.22
2023-04-09T01:58:41.722Z,55.38
2023-04-09T02:01:14.581Z,55.17
2023-04-09T02:03:47.662Z,54.74
2023-04-09T02:06:27.237Z,55.18
2023-04-09T02:08:55.855Z,54.74
2023-04-09T02:11:27.007Z,55.60
2023-04-09T02:13:57.047Z,55.43
2023-04-09T02:16:28.448Z,55.33
2023-04-09T02:18:57.013Z,55.10
2023-04-09T02:21:25.284Z,55.27
2023-04-09T02:23:53.253Z,55.34
2023-04-09T02:26:22.695Z,54.75
2023-04-09T02:28:51.065Z,55.22
2023-04-09T02:31:19.424Z,55.14
2023-04-09T02:33:48.738Z,55.28
2023-04-09T02:36:16.709Z,54.58
2023-04-09T02:38:44.716Z,55.21
2023-04-09T02:41:12.611Z,55.29
2023-04-09T02:43:40.767Z,54.68
2023-04-09T02:46:09.126Z,54.93
2023-04-09T02:48:37.084Z,54.94
2023-04-09T02:51:08.498Z,55.36
2023-04-09T02:53:37.821Z,54.84
2023-04-09T02:56:06.139Z,55.47
2023-04-09T02:58:34.082Z,55.39
2023-04-09T03:01:02.350Z,55.12
2023-04-09T03:03:31.061Z,55.29
2023-04-09T03:05:59.358Z,55.32
2023-04-09T03:08:28.803Z,56.27
2023-04-09T03:10:56.693Z,56.42
2023-04-09T03:13:24.737Z,55.92
2023-04-09T03:15:53.158Z,55.91
2023-04-09T03:18:21.446Z,56.06
2023-04-09T03:20:50.899Z,56.19
2023-04-09T03:23:18.944Z,55.79
2023-04-09T03:25:48.231Z,56.23
2023-04-09T03:28:16.207Z,56.01
2023-04-09T03:30:44.192Z,56.18
2023-04-09T03:33:12.084Z,56.20
2023-04-09T03:35:40.100Z,56.49
2023-04-09T03:38:08.240Z,57.03
2023-04-09T03:40:36.558Z,56.74
2023-04-09T03:43:05.949Z,56.91
2023-04-09T03:45:34.054Z,57.09
2023-04-09T03:48:01.941Z,57.16
2023-04-09T03:50:29.928Z,57.58
2023-04-09T03:52:57.969Z,56.86
2023-04-09T03:55:25.821Z,57.60
2023-04-09T03:57:53.815Z,57.97
2023-04-09T04:00:23.659Z,57.45
2023-04-09T04:02:51.878Z,56.95
2023-04-09T04:05:20.101Z,57.30
2023-04-09T04:07:48.088Z,57.79
2023-04-09T04:10:16.194Z,57.65
2023-04-09T04:12:44.203Z,57.30
2023-04-09T04:15:12.837Z,57.85
2023-04-09T04:17:42.224Z,57.41
2023-04-09T04:20:11.112Z,57.51
2023-04-09T04:22:39.101Z,57.08
2023-04-09T04:25:07.782Z,57.73
2023-04-09T04:27:35.865Z,57.45
2023-04-09T04:30:03.924Z,57.08
2023-04-09T04:32:31.777Z,57.18
2023-04-09T04:35:01.182Z,57.01
2023-04-09T04:37:29.119Z,57.06
2023-04-09T04:39:56.983Z,56.76
2023-04-09T04:42:24.932Z,57.00
2023-04-09T04:44:52.929Z,57.12
2023-04-09T04:47:21.000Z,57.10
2023-04-09T04:49:49.103Z,57.02
2023-04-09T04:52:18.479Z,56.66
2023-04-09T04:54:46.382Z,56.66
2023-04-09T04:57:14.592Z,56.50
2023-04-09T04:59:42.665Z,56.19
2023-04-09T05:02:10.649Z,56.07
2023-04-09T05:04:38.695Z,56.08
2023-04-09T05:07:06.824Z,56.00
2023-04-09T05:09:36.113Z,55.71
2023-04-09T05:12:04.041Z,55.67
2023-04-09T05:14:32.018Z,55.64
2023-04-09T05:17:00.084Z,55.66
2023-04-09T05:19:28.084Z,55.96
2023-04-09T05:21:56.095Z,55.78
2023-04-09T05:24:24.026Z,55.46
2023-04-09T05:26:53.414Z,55.50
2023-04-09T05:29:21.395Z,55.10
2023-04-09T05:31:49.257Z,54.83
2023-04-09T05:34:17.227Z,54.69
2023-04-09T05:36:45.222Z,54.65
2023-04-09T05:39:13.099Z,54.63
2023-04-09T05:41:42.082Z,54.70
2023-04-09T05:44:11.707Z,54.44
2023-04-09T05:46:39.961Z,54.06
2023-04-09T05:49:08.188Z,54.04
2023-04-09T05:51:36.329Z,54.05
2023-04-09T05:54:04.804Z,53.91
2023-04-09T05:56:32.764Z,53.76
2023-04-09T05:59:00.720Z,53.91
2023-04-09T06:01:29.937Z,53.57
2023-04-09T06:03:58.525Z,53.59
2023-04-09T06:06:27.140Z,53.05
2023-04-09T06:08:55.017Z,53.06
2023-04-09T06:11:23.190Z,53.04
2023-04-09T06:13:51.478Z,52.67
2023-04-09T06:16:19.584Z,52.76
2023-04-09T06:18:49.891Z,52.79
2023-04-09T06:21:18.021Z,52.84
2023-04-09T06:23:45.876Z,52.57
2023-04-09T06:26:13.979Z,52.43
2023-04-09T06:28:42.575Z,52.48
2023-04-09T06:31:10.557Z,52.40
2023-04-09T06:33:38.663Z,52.01
2023-04-09T06:36:08.914Z,51.83
2023-04-09T06:38:36.773Z,51.52
2023-04-09T06:41:07.178Z,51.75
2023-04-09T06:43:36.077Z,51.64
2023-04-09T06:46:04.007Z,51.34
2023-04-09T06:48:31.944Z,51.95
2023-04-09T06:50:59.958Z,51.50
2023-04-09T06:53:29.507Z,51.84
2023-04-09T06:55:57.608Z,50.96
2023-04-09T06:58:25.644Z,51.05
2023-04-09T07:00:53.539Z,50.98
2023-04-09T07:03:21.632Z,51.00
2023-04-09T07:05:49.767Z,51.16
2023-04-09T07:08:17.608Z,50.60
2023-04-09T07:10:47.844Z,50.15
2023-04-09T07:13:16.348Z,50.82
2023-04-09T07:15:44.269Z,50.47
2023-04-09T07:18:12.410Z,50.50
2023-04-09T07:20:40.349Z,49.76
2023-04-09T07:23:08.336Z,49.67
2023-04-09T07:25:36.587Z,48.84
2023-04-09T07:28:06.357Z,48.64
2023-04-09T07:30:34.230Z,48.60
2023-04-09T07:33:02.379Z,47.90
2023-04-09T07:35:30.489Z,48.13
2023-04-09T07:38:01.136Z,47.70
2023-04-09T07:40:29.168Z,48.12
2023-04-09T07:42:58.243Z,47.45
2023-04-09T07:45:27.563Z,47.23
2023-04-09T07:47:55.697Z,47.08
2023-04-09T07:50:23.834Z,47.13
2023-04-09T07:52:51.666Z,46.72
2023-04-09T07:55:20.369Z,46.32
2023-04-09T07:57:48.472Z,46.67
2023-04-09T08:00:17.304Z,46.55
2023-04-09T08:02:47.214Z,46.24
2023-04-09T08:05:15.585Z,45.93
2023-04-09T08:07:43.467Z,45.79
2023-04-09T08:10:15.267Z,45.76
2023-04-09T08:12:43.509Z,45.53
2023-04-09T08:15:11.951Z,45.50
2023-04-09T08:17:39.933Z,45.55
2023-04-09T08:20:10.568Z,45.18
2023-04-09T08:22:38.423Z,45.58
2023-04-09T08:25:07.336Z,45.45
2023-04-09T08:27:36.249Z,45.27
2023-04-09T08:30:04.954Z,45.56
2023-04-09T08:32:32.949Z,45.19
2023-04-09T08:35:00.952Z,45.23
2023-04-09T08:37:30.172Z,44.95
2023-04-09T08:39:58.162Z,45.16
2023-04-09T08:42:27.130Z,45.06
2023-04-09T08:44:55.064Z,45.07
2023-04-09T08:47:26.611Z,45.21
2023-04-09T08:49:54.650Z,44.59
2023-04-09T08:52:33.773Z,42.99
2023-04-09T08:55:02.395Z,42.69
2023-04-09T08:57:30.579Z,42.57
2023-04-09T08:59:59.002Z,41.90
2023-04-09T09:02:27.036Z,41.18
2023-04-09T09:05:00.931Z,39.98
2023-04-09T09:07:29.887Z,39.29
2023-04-09T09:10:03.550Z,38.04
2023-04-09T09:12:36.879Z,37.05
2023-04-09T09:15:05.803Z,37.33
2023-04-09T09:17:34.055Z,37.21
2023-04-09T09:20:21.668Z,36.31
2023-04-09T09:22:54.547Z,36.76
2023-04-09T09:25:26.720Z,36.74
2023-04-09T09:27:55.620Z,36.76
2023-04-09T09:30:25.089Z,36.48
2023-04-09T09:32:54.964Z,36.72
2023-04-09T09:35:23.529Z,36.69
2023-04-09T09:38:03.976Z,35.63
2023-04-09T09:40:33.431Z,35.34
2023-04-09T09:43:01.533Z,35.02
2023-04-09T09:45:31.734Z,33.64
2023-04-09T09:47:59.658Z,32.87
2023-04-09T09:50:31.725Z,31.96
2023-04-09T09:53:03.938Z,31.86
2023-04-09T09:55:35.144Z,31.43
2023-04-09T09:58:05.004Z,31.21
2023-04-09T10:00:34.288Z,30.36
2023-04-09T10:03:11.863Z,29.56
2023-04-09T10:05:41.671Z,29.49
2023-04-09T10:08:11.987Z,29.48
2023-04-09T10:10:43.297Z,29.47
2023-04-09T10:13:15.638Z,29.42
2023-04-09T10:15:44.888Z,29.79
2023-04-09T10:18:13.166Z,29.78
2023-04-09T10:20:46.353Z,29.67
2023-04-09T10:23:25.632Z,29.45
2023-04-09T10:25:55.116Z,29.25
2023-04-09T10:28:24.498Z,28.48
2023-04-09T10:30:54.753Z,28.12
2023-04-09T10:33:26.761Z,28.08
2023-04-09T10:35:55.079Z,27.79
2023-04-09T10:38:37.414Z,26.85
2023-04-09T10:41:14.072Z,26.98
2023-04-09T10:43:42.335Z,27.34
2023-04-09T10:46:29.108Z,26.20
2023-04-09T10:49:10.436Z,26.92
2023-04-09T10:51:39.690Z,27.36
2023-04-09T10:54:07.886Z,27.42
2023-04-09T10:56:37.256Z,27.46
2023-04-09T10:59:05.182Z,27.86
2023-04-09T11:01:33.309Z,27.55
2023-04-09T11:04:17.753Z,27.53
2023-04-09T11:06:47.958Z,28.06
2023-04-09T11:09:15.934Z,28.14
2023-04-09T11:11:45.381Z,27.99
2023-04-09T11:14:20.933Z,28.07
2023-04-09T11:16:49.117Z,28.40
2023-04-09T11:19:17.196Z,28.23
2023-04-09T11:21:46.360Z,27.86
2023-04-09T11:24:14.430Z,28.11
2023-04-09T11:26:42.509Z,27.91
2023-04-09T11:29:11.983Z,27.46
2023-04-09T11:31:40.099Z,26.50
2023-04-09T11:34:12.284Z,26.00
2023-04-09T11:36:40.364Z,26.07
2023-04-09T11:39:09.447Z,26.38
2023-04-09T11:41:38.647Z,27.06
2023-04-09T11:44:07.061Z,27.21
2023-04-09T11:46:37.174Z,27.00
2023-04-09T11:49:05.592Z,27.30
2023-04-09T11:51:35.778Z,27.26
2023-04-09T11:54:04.218Z,27.40
2023-04-09T11:56:32.572Z,27.82
2023-04-09T11:59:01.345Z,28.03
2023-04-09T12:01:33.174Z,28.37
2023-04-09T12:04:03.020Z,28.90
2023-04-09T12:06:34.205Z,29.38
2023-04-09T12:09:03.953Z,29.49
2023-04-09T12:11:33.291Z,29.91
2023-04-09T12:14:01.342Z,30.31
2023-04-09T12:16:31.564Z,29.75
2023-04-09T12:19:03.711Z,29.42
2023-04-09T12:21:46.964Z,29.11
2023-04-09T12:24:15.402Z,29.10
2023-04-09T12:26:43.256Z,29.21
2023-04-09T12:29:11.504Z,29.20
2023-04-09T12:31:39.685Z,29.39
2023-04-09T12:34:09.674Z,28.90
2023-04-09T12:36:38.179Z,28.85
2023-04-09T12:39:06.523Z,27.82
2023-04-09T12:41:34.551Z,26.86
2023-04-09T12:44:02.881Z,26.18
2023-04-09T12:46:32.619Z,24.94
2023-04-09T12:49:01.024Z,24.40
2023-04-09T12:51:31.020Z,24.47
2023-04-09T12:53:59.000Z,24.76
2023-04-09T12:56:29.752Z,24.94
2023-04-09T12:58:57.870Z,25.55
2023-04-09T13:01:26.263Z,25.80
2023-04-09T13:03:54.500Z,25.57
2023-04-09T13:06:23.369Z,25.25
2023-04-09T13:08:52.737Z,24.62
2023-04-09T13:11:20.661Z,24.02
2023-04-09T13:13:48.629Z,23.92
2023-04-09T13:16:16.967Z,23.63
2023-04-09T13:18:44.836Z,23.19
2023-04-09T13:21:15.151Z,23.09
2023-04-09T13:23:43.217Z,22.77
2023-04-09T13:26:14.883Z,21.68
2023-04-09T13:28:43.027Z,22.13
2023-04-09T13:31:11.112Z,22.31
2023-04-09T13:33:38.952Z,22.41
2023-04-09T13:36:07.753Z,22.53
2023-04-09T13:38:35.812Z,23.41
2023-04-09T13:41:03.757Z,23.81
2023-04-09T13:43:33.182Z,24.07
2023-04-09T13:46:01.191Z,24.52
2023-04-09T13:48:29.135Z,25.10
2023-04-09T13:50:57.143Z,25.52
2023-04-09T13:53:25.229Z,25.73
2023-04-09T13:55:53.598Z,26.22
2023-04-09T13:58:22.627Z,26.54
2023-04-09T14:00:52.753Z,26.89
2023-04-09T14:03:21.304Z,27.25
2023-04-09T14:05:49.873Z,27.64
2023-04-09T14:08:18.405Z,27.12
2023-04-09T14:10:46.393Z,25.66
2023-04-09T14:13:14.269Z,24.70
2023-04-09T14:15:45.370Z,23.56
2023-04-09T14:18:14.794Z,23.18
2023-04-09T14:20:42.858Z,22.46
2023-04-09T14:23:10.770Z,22.35
2023-04-09T14:25:38.712Z,21.37
2023-04-09T14:28:06.821Z,20.60
2023-04-09T14:30:34.722Z,20.35
2023-04-09T14:33:03.114Z,20.73
2023-04-09T14:35:32.562Z,21.78
2023-04-09T14:38:01.553Z,22.19
2023-04-09T14:40:29.750Z,22.88
2023-04-09T14:42:57.717Z,23.54
2023-04-09T14:45:25.544Z,24.04
2023-04-09T14:47:53.764Z,24.50
2023-04-09T14:50:21.828Z,25.28
2023-04-09T14:52:51.302Z,25.74
2023-04-09T14:55:19.548Z,25.80
2023-04-09T14:57:47.569Z,26.74
2023-04-09T15:00:16.142Z,27.58
2023-04-09T15:02:44.436Z,28.39
2023-04-09T15:05:12.742Z,29.42
2023-04-09T15:07:40.726Z,28.93
2023-04-09T15:10:11.038Z,28.14
2023-04-09T15:12:39.322Z,27.34
2023-04-09T15:15:08.337Z,26.60
2023-04-09T15:17:36.968Z,26.28
2023-04-09T15:20:06.603Z,26.19
2023-04-09T15:22:34.508Z,25.79
2023-04-09T15:25:02.468Z,25.83
2023-04-09T15:27:31.799Z,25.50
2023-04-09T15:29:59.638Z,25.46
2023-04-09T15:32:27.805Z,25.57
2023-04-09T15:34:55.822Z,25.34
2023-04-09T15:37:23.840Z,24.80
2023-04-09T15:39:51.866Z,24.44
2023-04-09T15:42:22.809Z,23.97
2023-04-09T15:44:52.306Z,23.67
2023-04-09T15:47:20.211Z,23.35
2023-04-09T15:49:48.279Z,23.22
2023-04-09T15:52:16.329Z,24.04
2023-04-09T15:54:44.190Z,24.60
2023-04-09T15:57:12.190Z,24.86
2023-04-09T15:59:40.163Z,25.47
2023-04-09T16:02:09.452Z,25.47
2023-04-09T16:04:37.683Z,25.69
2023-04-09T16:07:05.850Z,25.93
2023-04-09T16:09:33.762Z,26.02
2023-04-09T16:12:01.924Z,26.22
2023-04-09T16:14:30.221Z,26.52
2023-04-09T16:16:58.191Z,27.00
2023-04-09T16:19:28.658Z,27.37
2023-04-09T16:21:56.800Z,27.26
2023-04-09T16:24:24.706Z,27.45
2023-04-09T16:26:52.686Z,27.40
2023-04-09T16:29:20.641Z,27.21
2023-04-09T16:31:48.542Z,27.44
2023-04-09T16:34:16.766Z,27.52
2023-04-09T16:36:46.054Z,28.08
2023-04-09T16:39:15.240Z,28.53
2023-04-09T16:41:44.233Z,28.95
2023-04-09T16:44:12.293Z,29.64
2023-04-09T16:46:40.155Z,30.20
2023-04-09T16:49:08.082Z,31.05
2023-04-09T16:51:36.126Z,31.71
2023-04-09T16:54:05.388Z,32.58
2023-04-09T16:56:33.466Z,33.14
2023-04-09T16:59:01.507Z,33.29
2023-04-09T17:01:29.546Z,33.85
2023-04-09T17:03:58.022Z,33.73
2023-04-09T17:06:26.459Z,34.20
2023-04-09T17:08:54.471Z,34.95
2023-04-09T17:11:24.006Z,35.69
2023-04-09T17:13:51.950Z,35.74
2023-04-09T17:16:19.953Z,36.31
2023-04-09T17:18:48.252Z,36.96
2023-04-09T17:21:16.361Z,37.30
2023-04-09T17:23:44.882Z,37.84
2023-04-09T17:26:12.841Z,38.17
2023-04-09T17:28:42.999Z,38.75
2023-04-09T17:31:16.829Z,39.47
2023-04-09T17:33:47.248Z,39.38
2023-04-09T17:36:15.479Z,39.94
2023-04-09T17:38:43.535Z,40.12
2023-04-09T17:41:11.708Z,40.25
2023-04-09T17:43:41.312Z,40.78
2023-04-09T17:46:09.737Z,40.83
2023-04-09T17:48:37.950Z,41.04
2023-04-09T17:51:06.503Z,41.32
2023-04-09T17:53:34.431Z,41.58
2023-04-09T17:56:04.025Z,41.65
2023-04-09T17:58:32.053Z,41.98
2023-04-09T18:01:01.376Z,42.28
2023-04-09T18:03:29.407Z,42.27
2023-04-09T18:05:57.632Z,42.34
2023-04-09T18:08:25.694Z,42.56
2023-04-09T18:11:09.178Z,42.55
2023-04-09T18:13:39.770Z,42.89
2023-04-09T18:16:12.532Z,43.07
2023-04-09T18:18:41.357Z,43.19
2023-04-09T18:21:09.335Z,43.28
2023-04-09T18:23:37.433Z,43.50
2023-04-09T18:26:06.553Z,43.76
2023-04-09T18:28:35.480Z,43.99
2023-04-09T18:31:03.578Z,44.23
2023-04-09T18:33:33.031Z,44.03
2023-04-09T18:36:01.856Z,44.14
2023-04-09T18:38:30.045Z,44.45
2023-04-09T18:40:58.210Z,44.57
2023-04-09T18:43:26.127Z,44.57
2023-04-09T18:45:54.024Z,44.79
2023-04-09T18:48:22.216Z,44.95
2023-04-09T18:50:51.438Z,45.43
2023-04-09T18:53:19.320Z,45.38
2023-04-09T18:55:47.174Z,45.94
2023-04-09T18:58:16.004Z,45.72
2023-04-09T19:00:44.720Z,45.85
2023-04-09T19:03:13.260Z,46.01
2023-04-09T19:05:41.160Z,46.47
2023-04-09T19:08:10.989Z,46.53
2023-04-09T19:10:39.839Z,46.63
2023-04-09T19:13:07.640Z,47.08
2023-04-09T19:15:35.870Z,46.81
2023-04-09T19:18:03.916Z,47.69
2023-04-09T19:20:31.838Z,47.88
2023-04-09T19:22:59.758Z,47.82
2023-04-09T19:25:29.569Z,48.49
2023-04-09T19:27:57.664Z,48.10
2023-04-09T19:30:25.848Z,48.11
2023-04-09T19:32:54.369Z,48.24
2023-04-09T19:35:22.351Z,48.29
2023-04-09T19:37:50.334Z,48.72
2023-04-09T19:40:18.410Z,48.33
2023-04-09T19:42:47.661Z,48.82
2023-04-09T19:45:15.939Z,49.36
2023-04-09T19:47:43.930Z,49.74
2023-04-09T19:50:12.278Z,49.45
2023-04-09T19:52:41.714Z,49.27
2023-04-09T19:55:10.897Z,49.95
2023-04-09T19:57:38.994Z,50.27
2023-04-09T20:00:09.894Z,50.65
2023-04-09T20:02:39.481Z,50.57
2023-04-09T20:05:08.158Z,50.22
2023-04-09T20:07:36.157Z,51.12
2023-04-09T20:10:04.525Z,51.37
2023-04-09T20:12:32.664Z,51.08
2023-04-09T20:15:00.913Z,51.10
2023-04-09T20:17:30.329Z,51.65
2023-04-09T20:19:58.152Z,51.81
2023-04-09T20:22:26.127Z,52.09
2023-04-09T20:24:55.473Z,52.54
2023-04-09T20:27:23.706Z,52.35
2023-04-09T20:29:53.012Z,52.56
2023-04-09T20:32:21.266Z,53.18
2023-04-09T20:34:50.698Z,53.08
2023-04-09T20:37:18.716Z,53.68
2023-04-09T20:39:46.786Z,53.97
2023-04-09T20:42:14.667Z,53.58
2023-04-09T20:44:43.394Z,54.41
2023-04-09T20:47:12.060Z,53.70
2023-04-09T20:49:39.963Z,54.06
2023-04-09T20:52:09.608Z,54.25
2023-04-09T20:54:37.547Z,54.65
2023-04-09T20:57:05.781Z,54.61
2023-04-09T20:59:34.044Z,55.12
2023-04-09T21:02:02.117Z,55.16
2023-04-09T21:04:30.412Z,55.54
2023-04-09T21:06:58.590Z,55.37
2023-04-09T21:09:29.108Z,55.40
2023-04-09T21:11:56.985Z,55.57
2023-04-09T21:14:24.883Z,55.76
2023-04-09T21:16:53.069Z,56.39
2023-04-09T21:19:21.041Z,56.58
2023-04-09T21:21:49.259Z,56.55
2023-04-09T21:24:18.364Z,56.93
2023-04-09T21:26:50.847Z,56.73
2023-04-09T21:29:21.045Z,56.79
2023-04-09T21:31:49.424Z,56.87
2023-04-09T21:34:17.602Z,57.48
2023-04-09T21:36:46.397Z,57.44
2023-04-09T21:39:14.315Z,57.63
2023-04-09T21:41:42.147Z,57.61
2023-04-09T21:44:11.568Z,57.79
2023-04-09T21:46:40.776Z,58.20
2023-04-09T21:49:08.984Z,58.28
2023-04-09T21:51:38.418Z,58.75
2023-04-09T21:54:07.221Z,58.52
2023-04-09T21:56:36.070Z,59.08
2023-04-09T21:59:05.644Z,59.37
2023-04-09T22:01:35.474Z,59.84
2023-04-09T22:04:03.753Z,59.95
2023-04-09T22:06:32.559Z,60.29
2023-04-09T22:09:00.821Z,60.06
2023-04-09T22:11:29.241Z,60.42
2023-04-09T22:13:57.715Z,60.44
2023-04-09T22:16:26.399Z,60.42
2023-04-09T22:18:56.300Z,60.79
2023-04-09T22:21:24.778Z,60.69
2023-04-09T22:23:52.602Z,60.99
2023-04-09T22:26:21.590Z,61.12
2023-04-09T22:28:50.424Z,61.17
2023-04-09T22:31:18.566Z,61.55
2023-04-09T22:33:46.454Z,61.93
2023-04-09T22:36:16.069Z,62.03
2023-04-09T22:38:43.870Z,62.28
2023-04-09T22:41:11.733Z,61.94
2023-04-09T22:43:39.727Z,62.71
2023-04-09T22:46:07.640Z,62.94
2023-04-09T22:48:40.671Z,62.93
2023-04-09T22:51:12.982Z,62.53
2023-04-09T22:53:42.317Z,62.87
2023-04-09T22:56:10.500Z,63.07
2023-04-09T22:58:39.205Z,62.78
2023-04-09T23:01:07.634Z,63.19
2023-04-09T23:03:35.660Z,63.30
2023-04-09T23:06:03.686Z,63.50
2023-04-09T23:08:31.506Z,63.44
2023-04-09T23:11:01.219Z,63.97
2023-04-09T23:13:29.257Z,64.15
2023-04-09T23:15:57.208Z,63.90
2023-04-09T23:18:25.098Z,63.73
2023-04-09T23:20:53.280Z,63.90
2023-04-09T23:23:23.787Z,64.51
2023-04-09T23:25:52.570Z,64.26
2023-04-09T23:28:22.102Z,64.53
2023-04-09T23:30:50.002Z,64.82
2023-04-09T23:33:17.973Z,64.17
2023-04-09T23:35:46.886Z,64.43
2023-04-09T23:38:15.176Z,64.62
2023-04-09T23:40:43.126Z,64.59
2023-04-09T23:43:11.230Z,64.69
2023-04-09T23:45:40.658Z,65.37
2023-04-09T23:48:09.785Z,64.79
2023-04-09T23:50:39.585Z,65.25
2023-04-09T23:53:07.604Z,65.38
2023-04-09T23:55:38.125Z,65.52
2023-04-09T23:58:06.578Z,65.05
